Terminal Aerodrome Forecast
Issued by NWS Shreveport, LA

Home | Current Version | Previous Version | Text Only | Print | Product List | Glossary On
Versions: 1 2 3 4 5 6 7 8 9 10 11 12 13 14 15 16 17 18 19 20 21 22 23 24 25 26 27 28 29 30 31 32 33 34
000
FTUS44 KSHV 171306 AAB
TAFSHV
TAF AMD
KSHV 171306Z 1713/1812 00000KT P6SM FEW060 SCT160 BKN250
      TEMPO 1713/1715 BKN025
     FM171500 21005KT P6SM SCT025 BKN035
     FM171800 23010G16KT P6SM SCT030 BKN050
     FM180000 25003KT P6SM FEW050
     FM180900 20004KT P6SM OVC015=

USA.gov is the U.S. government's official web portal to all federal, state and local government web resources and services.